Time;durP1;ratioP1;P1;durP2;ratioP2;P2;SDS_P1;SDS_P2;PMS_P1;PMS_P2;Temp;Humidity;BMP_temperature;BMP_pressure;BME280_temperature;BME280_humidity;BME280_pressure;Samples;Min_cycle;Max_cycle;Signal;HPM_P1;HPM_P2
2021/10/13 00:01:33;;;;;;;2.67;2.17;;;5.90;99.90;;;;;;4952936;28;20078;-81
2021/10/13 00:04:01;;;;;;;3.40;3.10;;;5.80;99.90;;;;;;4958223;28;20522;-81
2021/10/13 00:06:29;;;;;;;2.03;1.88;;;5.90;99.90;;;;;;4972479;28;20047;-80
2021/10/13 00:08:57;;;;;;;2.10;1.67;;;5.90;99.90;;;;;;4954644;28;20035;-80
2021/10/13 00:11:25;;;;;;;4.80;3.00;;;5.90;99.90;;;;;;4954431;28;20051;-81
2021/10/13 00:13:52;;;;;;;4.70;2.92;;;5.90;99.90;;;;;;4962306;28;20071;-80
2021/10/13 00:16:20;;;;;;;2.60;1.90;;;5.90;99.90;;;;;;4933111;29;20048;-81
2021/10/13 00:18:48;;;;;;;2.42;2.20;;;5.90;99.90;;;;;;4932738;29;20493;-80
2021/10/13 00:21:16;;;;;;;2.25;2.10;;;5.80;99.90;;;;;;4917091;29;20063;-81
2021/10/13 00:23:44;;;;;;;2.85;2.50;;;5.80;99.90;;;;;;4933994;29;20048;-80
2021/10/13 00:26:11;;;;;;;1.95;1.70;;;5.80;99.90;;;;;;4933706;29;20067;-81
2021/10/13 00:28:40;;;;;;;2.40;2.20;;;5.70;99.90;;;;;;4934758;28;20047;-81
2021/10/13 00:31:08;;;;;;;1.98;1.88;;;5.90;99.90;;;;;;4951322;29;20055;-81
2021/10/13 00:33:36;;;;;;;2.55;2.35;;;5.70;99.90;;;;;;4952770;28;20531;-81
2021/10/13 00:36:04;;;;;;;2.45;2.25;;;5.70;99.90;;;;;;4953077;29;20084;-81
2021/10/13 00:38:31;;;;;;;3.63;2.33;;;5.70;99.90;;;;;;4951141;29;20047;-81
2021/10/13 00:40:59;;;;;;;1.98;1.75;;;5.70;99.90;;;;;;4951223;28;20058;-80
2021/10/13 00:43:27;;;;;;;1.90;1.73;;;5.70;99.90;;;;;;4952196;29;20047;-81
2021/10/13 00:45:55;;;;;;;2.10;2.00;;;5.70;99.90;;;;;;4935730;29;20058;-80
2021/10/13 00:48:22;;;;;;;2.40;1.85;;;5.70;99.90;;;;;;4918919;29;20579;-81
2021/10/13 00:50:50;;;;;;;1.80;1.65;;;5.80;99.90;;;;;;4912336;29;20044;-81
2021/10/13 00:53:18;;;;;;;2.60;2.15;;;5.70;99.90;;;;;;4914041;29;20048;-80
2021/10/13 00:55:46;;;;;;;2.55;2.33;;;5.60;99.90;;;;;;4914917;29;20059;-81
2021/10/13 00:58:13;;;;;;;1.67;1.45;;;5.60;99.90;;;;;;4913171;29;20055;-80
2021/10/13 01:00:44;;;;;;;2.33;2.13;;;5.60;99.90;;;;;;4914134;29;20055;-81
2021/10/13 01:03:36;;;;;;;2.55;2.17;;;5.80;99.90;;;;;;4918764;29;20056;-80
2021/10/13 01:06:04;;;;;;;;;;;5.70;99.90;;;;;;4914433;29;20059;-81
2021/10/13 01:08:54;;;;;;;1.55;1.45;;;5.70;99.90;;;;;;4896344;29;19927;-81
2021/10/13 01:11:37;;;;;;;1.60;1.50;;;5.60;99.90;;;;;;4914217;29;20055;-81
2021/10/13 01:14:37;;;;;;;1.55;1.45;;;5.50;99.90;;;;;;4913515;29;20044;-81
2021/10/13 01:17:30;;;;;;;1.95;1.42;;;5.40;99.90;;;;;;4896597;29;20056;-81
2021/10/13 01:20:13;;;;;;;1.20;1.20;;;5.30;99.90;;;;;;4897568;29;20569;-81
2021/10/13 01:23:03;;;;;;;1.17;1.17;;;5.20;99.90;;;;;;4897127;29;20498;-81
2021/10/13 01:25:47;;;;;;;1.95;1.60;;;5.20;99.90;;;;;;4897433;29;20056;-81
2021/10/13 01:28:23;;;;;;;4.40;2.80;;;5.20;99.90;;;;;;4891660;29;20752;-81
2021/10/13 01:31:09;;;;;;;1.65;1.55;;;5.20;99.90;;;;;;4896972;29;20048;-81
2021/10/13 01:33:58;;;;;;;1.80;1.70;;;5.20;99.90;;;;;;4881100;29;20055;-81
2021/10/13 01:36:39;;;;;;;1.83;1.52;;;5.30;99.90;;;;;;4914442;29;20059;-81
2021/10/13 01:39:11;;;;;;;2.30;2.08;;;5.30;99.90;;;;;;4911343;29;20052;-81
2021/10/13 01:41:42;;;;;;;2.08;1.85;;;5.30;99.90;;;;;;4926644;29;20401;-81
2021/10/13 01:44:12;;;;;;;3.90;2.25;;;5.40;99.90;;;;;;4932524;29;20052;-81
2021/10/13 01:46:44;;;;;;;2.97;2.03;;;5.40;99.90;;;;;;4932774;29;20062;-81
2021/10/13 01:49:14;;;;;;;5.50;2.30;;;5.40;99.90;;;;;;4932726;29;20052;-81
2021/10/13 01:51:43;;;;;;;2.50;2.30;;;5.40;99.90;;;;;;4932914;29;20048;-81
2021/10/13 01:54:12;;;;;;;3.70;3.33;;;5.30;99.90;;;;;;4934961;29;20062;-81
2021/10/13 01:56:42;;;;;;;5.18;4.40;;;5.40;99.90;;;;;;4941980;28;20046;-81
2021/10/13 01:59:14;;;;;;;7.60;2.88;;;5.40;99.90;;;;;;4955438;29;20055;-81
2021/10/13 02:01:44;;;;;;;2.70;2.50;;;5.50;99.90;;;;;;4955584;28;20493;-82
2021/10/13 02:04:14;;;;;;;4.57;3.45;;;5.50;99.90;;;;;;4962396;28;20058;-81
2021/10/13 02:06:46;;;;;;;4.38;3.70;;;5.40;99.90;;;;;;4974924;28;20108;-81
2021/10/13 02:09:16;;;;;;;4.30;2.83;;;5.40;99.90;;;;;;4973246;28;20051;-81
2021/10/13 02:11:46;;;;;;;4.35;2.85;;;5.40;99.90;;;;;;4974754;28;20046;-81
2021/10/13 02:14:16;;;;;;;3.38;2.95;;;5.50;99.90;;;;;;4945567;29;20058;-81
2021/10/13 02:16:47;;;;;;;4.07;3.50;;;5.50;99.90;;;;;;4935045;29;20482;-81
2021/10/13 02:19:16;;;;;;;7.80;2.88;;;5.50;99.90;;;;;;4935192;29;20051;-81
2021/10/13 02:21:52;;;;;;;4.53;3.92;;;5.40;99.90;;;;;;4934412;29;20051;-81
2021/10/13 02:24:31;;;;;;;6.97;5.18;;;5.50;99.90;;;;;;4934811;29;20052;-80
2021/10/13 02:27:05;;;;;;;7.28;6.68;;;5.50;99.90;;;;;;4938908;29;20054;-81
2021/10/13 02:29:32;;;;;;;8.10;3.95;;;5.50;99.90;;;;;;4954777;28;20409;-81
2021/10/13 02:32:00;;;;;;;5.10;4.15;;;5.50;99.90;;;;;;4955310;29;20051;-81
2021/10/13 02:34:28;;;;;;;4.95;4.10;;;5.50;99.90;;;;;;4937761;29;20066;-82
2021/10/13 02:36:56;;;;;;;6.50;4.38;;;5.50;99.90;;;;;;4937545;29;20055;-82
2021/10/13 02:39:24;;;;;;;4.60;3.60;;;5.60;99.90;;;;;;4955355;29;20050;-82
2021/10/13 02:41:51;;;;;;;5.40;4.22;;;5.60;99.90;;;;;;4952774;28;20051;-82
2021/10/13 02:44:19;;;;;;;7.80;5.78;;;5.50;99.90;;;;;;4937193;29;20055;-81
2021/10/13 02:46:55;;;;;;;6.53;5.05;;;5.50;99.90;;;;;;4954601;28;20051;-81
2021/10/13 02:49:50;;;;;;;6.43;4.95;;;5.50;99.90;;;;;;4954596;28;20078;-82
2021/10/13 02:52:35;;;;;;;7.53;4.75;;;5.50;99.90;;;;;;4953751;29;20559;-82
2021/10/13 02:55:09;;;;;;;4.68;4.22;;;5.50;99.90;;;;;;4954132;29;20051;-82
2021/10/13 02:57:46;;;;;;;6.40;3.85;;;5.50;99.90;;;;;;4954117;28;20054;-82
2021/10/13 03:00:15;;;;;;;4.97;4.53;;;5.40;99.90;;;;;;4953696;29;20047;-81
2021/10/13 03:02:56;;;;;;;5.32;4.10;;;5.40;99.90;;;;;;4937017;29;20044;-81
2021/10/13 03:05:25;;;;;;;5.22;4.13;;;5.40;99.90;;;;;;4951379;28;20046;-81
2021/10/13 03:07:58;;;;;;;5.93;4.90;;;5.40;99.90;;;;;;4972724;28;20051;-82
2021/10/13 03:10:28;;;;;;;6.82;5.25;;;5.40;99.90;;;;;;4971847;28;20066;-81
2021/10/13 03:12:59;;;;;;;6.70;5.25;;;5.40;99.90;;;;;;4955624;28;20045;-81
2021/10/13 03:15:29;;;;;;;5.82;3.70;;;5.40;99.90;;;;;;4972655;28;20043;-81
2021/10/13 03:17:59;;;;;;;5.47;4.53;;;5.40;99.90;;;;;;4955874;28;20414;-81
2021/10/13 03:20:29;;;;;;;5.22;3.95;;;5.30;99.90;;;;;;4956092;28;20051;-82
2021/10/13 03:22:59;;;;;;;5.70;5.22;;;5.20;99.90;;;;;;4971770;28;20051;-81
2021/10/13 03:25:30;;;;;;;6.32;4.80;;;5.20;99.90;;;;;;4958292;28;20043;-81
2021/10/13 03:28:00;;;;;;;5.25;3.33;;;5.10;99.90;;;;;;4945001;29;20051;-82
2021/10/13 03:30:30;;;;;;;4.17;3.77;;;5.20;99.90;;;;;;4952190;28;20081;-81
2021/10/13 03:32:57;;;;;;;4.93;4.03;;;5.10;99.90;;;;;;4953533;28;20050;-82
2021/10/13 03:35:27;;;;;;;6.20;4.18;;;5.00;99.90;;;;;;4953213;29;20397;-81
2021/10/13 03:37:57;;;;;;;5.35;4.22;;;4.90;99.90;;;;;;4953675;28;20500;-81
2021/10/13 03:40:26;;;;;;;5.25;4.03;;;5.00;99.90;;;;;;4952933;28;20051;-82
2021/10/13 03:42:54;;;;;;;6.57;5.03;;;5.00;99.90;;;;;;4951497;28;20051;-82
2021/10/13 03:45:24;;;;;;;6.18;4.28;;;5.00;99.90;;;;;;4953629;28;20046;-82
2021/10/13 03:47:52;;;;;;;6.35;4.85;;;5.10;99.90;;;;;;4954218;29;20062;-82
2021/10/13 03:50:21;;;;;;;5.40;4.57;;;5.00;99.90;;;;;;4952725;28;20140;-82
2021/10/13 03:52:49;;;;;;;9.35;4.28;;;5.10;99.90;;;;;;4953670;28;20389;-82
2021/10/13 03:55:19;;;;;;;5.38;3.97;;;5.10;99.90;;;;;;4936299;29;20485;-82
2021/10/13 03:57:47;;;;;;;6.13;4.55;;;5.10;99.90;;;;;;4953086;28;20074;-81
2021/10/13 04:00:18;;;;;;;9.65;7.40;;;5.20;99.90;;;;;;4953686;29;20062;-82
2021/10/13 04:02:46;;;;;;;5.60;5.07;;;5.20;99.90;;;;;;4951681;28;20494;-82
2021/10/13 04:05:15;;;;;;;6.38;4.13;;;5.20;99.90;;;;;;4952876;28;20058;-82
2021/10/13 04:07:43;;;;;;;5.60;3.92;;;5.10;99.90;;;;;;4938232;29;20055;-82
2021/10/13 04:10:14;;;;;;;7.38;4.28;;;5.20;99.90;;;;;;4933640;29;20055;-82
2021/10/13 04:12:42;;;;;;;6.25;5.13;;;5.20;99.90;;;;;;4952259;28;20485;-82
2021/10/13 04:15:11;;;;;;;4.40;4.00;;;5.20;99.90;;;;;;4937730;29;20051;-82
2021/10/13 04:17:39;;;;;;;5.45;3.97;;;5.20;99.90;;;;;;4938153;28;20043;-82
2021/10/13 04:20:10;;;;;;;7.97;4.03;;;5.20;99.90;;;;;;4952017;29;20047;-81
2021/10/13 04:22:38;;;;;;;6.88;5.45;;;5.20;99.90;;;;;;4952006;28;20051;-82
2021/10/13 04:25:07;;;;;;;5.03;3.88;;;5.20;99.90;;;;;;4952129;28;20047;-81
2021/10/13 04:27:35;;;;;;;5.20;4.75;;;5.20;99.90;;;;;;4954942;28;20039;-82
2021/10/13 04:30:07;;;;;;;6.03;3.92;;;5.20;99.90;;;;;;4971753;28;20073;-82
2021/10/13 04:32:34;;;;;;;5.45;4.38;;;5.20;99.90;;;;;;4964922;28;20050;-82
2021/10/13 04:35:02;;;;;;;10.80;6.93;;;5.10;99.90;;;;;;4961284;28;20054;-82
2021/10/13 04:37:30;;;;;;;4.32;3.85;;;5.10;99.90;;;;;;4960688;28;20043;-82
2021/10/13 04:39:58;;;;;;;6.22;4.65;;;5.10;99.90;;;;;;4959865;28;20487;-80
2021/10/13 04:42:26;;;;;;;6.93;5.45;;;5.10;99.90;;;;;;4955361;28;20681;-80
2021/10/13 04:44:53;;;;;;;5.30;3.83;;;5.10;99.90;;;;;;4926697;29;20047;-78
2021/10/13 04:47:21;;;;;;;5.60;4.30;;;5.10;99.90;;;;;;4955844;28;20042;-80
2021/10/13 04:49:49;;;;;;;6.93;5.70;;;5.00;99.90;;;;;;4950893;28;20420;-81
2021/10/13 04:52:17;;;;;;;5.90;5.10;;;4.90;99.90;;;;;;4962752;28;20054;-80
2021/10/13 04:54:44;;;;;;;9.90;5.60;;;4.90;99.90;;;;;;4961217;28;20043;-80
2021/10/13 04:57:12;;;;;;;5.25;4.10;;;4.90;99.90;;;;;;4955384;28;20493;-82
2021/10/13 04:59:40;;;;;;;6.75;6.07;;;5.00;99.90;;;;;;4948732;29;20048;-80
2021/10/13 05:02:07;;;;;;;6.15;5.63;;;4.90;99.90;;;;;;4942743;29;20055;-82
2021/10/13 05:04:35;;;;;;;6.90;5.50;;;4.90;99.90;;;;;;4961701;28;20047;-80
2021/10/13 05:07:06;;;;;;;11.32;5.80;;;4.90;99.90;;;;;;4970309;28;20065;-80
2021/10/13 05:09:37;;;;;;;6.22;4.70;;;4.80;99.90;;;;;;4970232;28;20054;-80
2021/10/13 05:12:05;;;;;;;11.13;5.90;;;4.90;99.90;;;;;;4954061;28;20062;-80
2021/10/13 05:14:35;;;;;;;5.47;4.97;;;4.80;99.90;;;;;;4954437;28;20297;-79
2021/10/13 05:17:03;;;;;;;5.70;4.40;;;4.90;99.90;;;;;;4970143;28;20700;-81
2021/10/13 05:19:31;;;;;;;6.07;5.20;;;4.90;99.90;;;;;;4938762;28;20477;-81
2021/10/13 05:21:58;;;;;;;5.75;4.25;;;4.90;99.90;;;;;;4969837;28;20059;-81
2021/10/13 05:24:26;;;;;;;6.45;5.45;;;5.00;99.90;;;;;;4949636;28;20062;-81
2021/10/13 05:26:56;;;;;;;8.65;6.68;;;5.00;99.90;;;;;;4918382;29;20058;-81
2021/10/13 05:29:24;;;;;;;5.32;4.63;;;4.90;99.90;;;;;;4938283;29;20054;-81
2021/10/13 05:31:53;;;;;;;7.80;6.00;;;5.00;99.90;;;;;;4938826;29;20051;-81
2021/10/13 05:34:20;;;;;;;6.50;4.90;;;4.90;99.90;;;;;;4955228;29;20055;-81
2021/10/13 05:36:48;;;;;;;9.75;6.03;;;4.80;99.90;;;;;;4956090;28;20686;-81
2021/10/13 05:39:16;;;;;;;10.20;5.60;;;4.80;99.90;;;;;;4956023;29;20055;-81
2021/10/13 05:41:45;;;;;;;6.80;5.60;;;4.80;99.90;;;;;;4954360;28;20055;-81
2021/10/13 05:44:13;;;;;;;6.03;4.75;;;4.70;99.90;;;;;;4955652;29;20056;-81
2021/10/13 05:46:40;;;;;;;6.85;5.13;;;4.60;99.90;;;;;;4955333;28;20044;-81
2021/10/13 05:49:08;;;;;;;6.05;5.43;;;4.60;99.90;;;;;;4955952;28;20043;-81
2021/10/13 05:51:36;;;;;;;10.48;5.63;;;4.60;99.90;;;;;;4955533;29;20054;-81
2021/10/13 05:54:04;;;;;;;8.48;6.53;;;4.50;99.90;;;;;;4955255;28;20401;-81
2021/10/13 05:56:32;;;;;;;10.77;7.20;;;4.50;99.90;;;;;;4954392;28;20062;-79
2021/10/13 05:59:01;;;;;;;8.63;5.55;;;4.50;99.90;;;;;;4955905;29;20047;-81
2021/10/13 06:01:29;;;;;;;6.43;5.32;;;4.50;99.90;;;;;;4955216;28;20054;-81
2021/10/13 06:03:57;;;;;;;7.30;6.20;;;4.50;99.90;;;;;;4954562;29;20047;-81
2021/10/13 06:06:24;;;;;;;9.05;5.93;;;4.50;99.90;;;;;;4955885;28;20410;-82
2021/10/13 06:08:52;;;;;;;8.18;6.43;;;4.50;99.90;;;;;;4938587;28;20074;-81
2021/10/13 06:11:20;;;;;;;7.97;6.78;;;4.60;99.90;;;;;;4955088;29;20059;-80
2021/10/13 06:13:48;;;;;;;6.57;5.43;;;4.70;99.90;;;;;;4953119;29;20043;-82
2021/10/13 06:16:15;;;;;;;7.72;6.25;;;4.80;99.90;;;;;;4955695;29;20059;-81
2021/10/13 06:18:43;;;;;;;8.73;5.15;;;4.90;99.90;;;;;;4955105;28;20493;-81
2021/10/13 06:21:11;;;;;;;8.35;6.07;;;4.70;99.90;;;;;;4953395;29;20492;-81
2021/10/13 06:23:39;;;;;;;9.00;6.88;;;4.80;99.90;;;;;;4955215;29;20492;-81
2021/10/13 06:26:07;;;;;;;8.05;5.75;;;4.80;99.90;;;;;;4955056;28;20043;-79
2021/10/13 06:28:35;;;;;;;8.38;5.07;;;4.80;99.90;;;;;;4952882;28;20047;-80
2021/10/13 06:31:02;;;;;;;7.65;6.60;;;4.80;99.90;;;;;;4954024;29;20047;-82
2021/10/13 06:33:32;;;;;;;12.23;7.65;;;4.80;99.90;;;;;;4963736;28;20058;-82
2021/10/13 06:36:07;;;;;;;6.60;5.53;;;4.80;99.90;;;;;;4973800;28;20050;-82
2021/10/13 06:38:35;;;;;;;10.10;7.65;;;4.80;99.90;;;;;;4957080;28;20046;-82
2021/10/13 06:41:06;;;;;;;12.50;5.50;;;4.80;99.90;;;;;;4974018;28;20054;-83
2021/10/13 06:43:34;;;;;;;10.47;6.90;;;5.00;99.90;;;;;;4972832;28;20043;-82
2021/10/13 06:46:02;;;;;;;7.90;6.10;;;4.90;99.90;;;;;;4973947;28;20046;-82
2021/10/13 06:48:29;;;;;;;8.63;5.18;;;5.00;99.90;;;;;;4945561;28;20058;-82
2021/10/13 06:50:58;;;;;;;5.30;4.30;;;5.00;99.90;;;;;;4932419;29;20044;-81
2021/10/13 06:53:27;;;;;;;10.45;7.50;;;5.00;99.90;;;;;;4949886;29;20059;-81
2021/10/13 06:55:56;;;;;;;6.80;5.15;;;5.20;99.90;;;;;;4936123;29;20051;-81
2021/10/13 06:58:25;;;;;;;7.82;6.15;;;5.10;99.90;;;;;;4934737;29;20524;-80
2021/10/13 07:00:53;;;;;;;5.50;4.78;;;5.10;99.90;;;;;;4933474;29;20059;-81
2021/10/13 07:03:21;;;;;;;7.50;5.63;;;5.30;99.90;;;;;;4934573;29;20062;-83
2021/10/13 07:05:49;;;;;;;7.18;6.45;;;5.20;99.90;;;;;;4972146;28;20531;-85
2021/10/13 07:08:16;;;;;;;11.50;6.03;;;5.20;99.90;;;;;;4973558;28;20054;-82
2021/10/13 07:10:44;;;;;;;6.80;5.50;;;5.10;99.90;;;;;;4973472;28;20051;-85
2021/10/13 07:13:12;;;;;;;10.85;5.65;;;5.10;99.90;;;;;;4972086;28;20050;-84
2021/10/13 07:15:41;;;;;;;7.80;6.60;;;5.10;99.90;;;;;;4973389;28;20058;-82
2021/10/13 07:18:09;;;;;;;5.75;4.15;;;5.10;99.90;;;;;;4972920;28;20046;-82
2021/10/13 07:20:37;;;;;;;7.35;5.20;;;5.10;99.90;;;;;;4971591;28;20055;-84
2021/10/13 07:23:06;;;;;;;5.32;4.05;;;5.10;99.90;;;;;;4972015;28;20046;-82
2021/10/13 07:25:35;;;;;;;8.65;6.50;;;5.10;99.90;;;;;;4949981;28;20050;-82
2021/10/13 07:28:02;;;;;;;5.75;5.10;;;5.20;99.90;;;;;;4934860;29;20465;-82
2021/10/13 07:30:31;;;;;;;9.63;6.13;;;5.20;99.90;;;;;;4934573;29;20052;-82
2021/10/13 07:33:00;;;;;;;9.48;7.13;;;5.30;99.90;;;;;;4933805;29;20054;-82
2021/10/13 07:35:33;;;;;;;13.40;7.75;;;5.40;99.90;;;;;;4935651;29;20054;-83
2021/10/13 07:38:02;;;;;;;9.75;6.50;;;5.40;99.90;;;;;;4949075;29;20942;-83
2021/10/13 07:40:32;;;;;;;6.97;5.45;;;5.20;99.90;;;;;;4934515;29;20064;-81
2021/10/13 07:43:00;;;;;;;6.28;5.68;;;5.30;99.90;;;;;;4934852;29;20059;-82
2021/10/13 07:45:28;;;;;;;7.43;6.07;;;5.30;99.90;;;;;;4917582;29;20050;-81
2021/10/13 07:47:55;;;;;;;19.25;9.25;;;5.40;99.90;;;;;;4949817;29;20058;-82
2021/10/13 07:50:23;;;;;;;7.72;6.55;;;5.50;99.90;;;;;;4934339;29;20051;-82
2021/10/13 07:52:51;;;;;;;7.53;6.72;;;5.40;99.90;;;;;;4948608;29;20362;-81
2021/10/13 07:55:18;;;;;;;5.63;4.57;;;5.60;99.90;;;;;;4935161;29;20055;-81
2021/10/13 07:57:46;;;;;;;4.97;4.57;;;5.60;99.90;;;;;;4934462;29;20138;-81
2021/10/13 08:00:16;;;;;;;8.85;4.68;;;5.70;99.90;;;;;;4934959;29;20056;-82
2021/10/13 08:02:45;;;;;;;5.88;5.28;;;5.70;99.90;;;;;;4934531;29;20059;-81
2021/10/13 08:05:16;;;;;;;5.45;4.95;;;5.70;99.90;;;;;;4963388;28;20488;-80
2021/10/13 08:07:45;;;;;;;12.35;5.53;;;5.90;99.90;;;;;;4972797;28;20061;-81
2021/10/13 08:10:13;;;;;;;7.72;6.05;;;6.20;99.90;;;;;;4972347;28;20054;-81
2021/10/13 08:12:42;;;;;;;6.47;5.63;;;6.20;99.90;;;;;;4972124;28;20058;-81
2021/10/13 08:15:10;;;;;;;8.25;6.25;;;6.20;99.90;;;;;;4958304;28;20066;-80
2021/10/13 08:17:38;;;;;;;11.52;5.25;;;6.10;99.90;;;;;;4953076;28;20385;-81
2021/10/13 08:20:08;;;;;;;7.53;5.82;;;6.10;99.90;;;;;;4953323;29;20074;-81
2021/10/13 08:22:40;;;;;;;5.93;5.22;;;5.90;99.90;;;;;;4953188;28;20051;-83
2021/10/13 08:25:09;;;;;;;6.70;4.30;;;5.70;99.90;;;;;;4953362;28;20047;-81
2021/10/13 08:27:37;;;;;;;9.27;5.85;;;5.60;99.90;;;;;;4953520;29;20051;-82
2021/10/13 08:30:09;;;;;;;4.53;4.13;;;5.70;99.90;;;;;;4952932;28;20078;-81
2021/10/13 08:32:37;;;;;;;5.00;4.35;;;5.60;99.90;;;;;;4952982;28;20063;-81
2021/10/13 08:35:10;;;;;;;12.57;5.90;;;5.70;99.90;;;;;;4953275;28;20047;-81
2021/10/13 08:37:41;;;;;;;6.10;5.53;;;5.80;99.90;;;;;;4951498;29;20516;-81
2021/10/13 08:40:11;;;;;;;11.02;8.27;;;5.90;99.90;;;;;;4952944;28;20055;-80
2021/10/13 08:42:57;;;;;;;5.97;5.40;;;5.80;99.90;;;;;;4952305;28;20055;-81
2021/10/13 08:45:27;;;;;;;7.78;6.72;;;5.80;99.90;;;;;;4936183;29;20508;-81
2021/10/13 08:47:56;;;;;;;10.77;6.10;;;5.80;99.90;;;;;;4926773;29;20055;-83
2021/10/13 08:50:25;;;;;;;7.97;5.75;;;5.90;99.90;;;;;;4933764;29;20055;-81
2021/10/13 08:53:02;;;;;;;7.03;5.88;;;5.90;99.90;;;;;;4885095;29;20047;-81
2021/10/13 08:55:30;;;;;;;9.40;7.55;;;6.20;99.90;;;;;;4933889;29;20060;-82
2021/10/13 08:58:13;;;;;;;10.77;7.95;;;6.20;99.90;;;;;;4917343;29;20047;-82
2021/10/13 09:00:43;;;;;;;8.43;6.63;;;6.20;99.90;;;;;;4900815;29;20067;-82
2021/10/13 09:03:45;;;;;;;7.72;6.15;;;6.20;99.90;;;;;;4932623;29;20164;-81
2021/10/13 09:06:24;;;;;;;6.32;5.70;;;6.00;99.90;;;;;;4894103;29;20044;-84
2021/10/13 09:09:11;;;;;;;4.18;3.67;;;6.10;99.90;;;;;;4913993;29;20497;-84
2021/10/13 09:11:48;;;;;;;5.47;3.78;;;6.00;99.90;;;;;;4898535;29;20055;-84
2021/10/13 09:14:19;;;;;;;6.05;3.95;;;5.90;99.90;;;;;;4915105;29;20059;-83
2021/10/13 09:17:02;;;;;;;6.25;5.22;;;6.00;99.90;;;;;;4914890;29;20056;-83
2021/10/13 09:19:52;;;;;;;7.50;4.13;;;6.00;99.90;;;;;;4898444;29;20048;-80
2021/10/13 09:22:20;;;;;;;13.65;5.18;;;6.00;99.90;;;;;;4914620;29;20055;-81
2021/10/13 09:24:50;;;;;;;10.45;4.60;;;6.00;99.90;;;;;;4914343;29;20495;-81
2021/10/13 09:27:29;;;;;;;5.05;3.97;;;6.00;99.90;;;;;;4919562;29;20076;-81
2021/10/13 09:30:02;;;;;;;5.75;3.78;;;6.00;99.90;;;;;;4933088;29;20052;-83
2021/10/13 09:32:30;;;;;;;9.65;6.05;;;6.00;99.90;;;;;;4934099;29;20051;-83
2021/10/13 09:34:58;;;;;;;4.25;3.78;;;6.10;99.90;;;;;;4932313;29;20058;-82
2021/10/13 09:37:50;;;;;;;5.20;4.00;;;6.20;99.90;;;;;;4932978;29;20048;-82
2021/10/13 09:40:35;;;;;;;4.97;4.50;;;6.20;99.90;;;;;;4924530;28;20074;-83
2021/10/13 09:43:03;;;;;;;6.93;2.97;;;6.30;99.90;;;;;;4951728;28;20048;-83
2021/10/13 09:45:33;;;;;;;6.00;4.47;;;6.40;99.90;;;;;;4952918;28;20046;-82
2021/10/13 09:48:07;;;;;;;4.65;4.22;;;6.50;99.90;;;;;;4951393;29;20043;-82
2021/10/13 09:50:47;;;;;;;4.07;3.63;;;6.40;99.90;;;;;;4952045;28;20527;-82
2021/10/13 09:53:15;;;;;;;6.28;4.10;;;6.40;99.90;;;;;;4951899;28;20055;-82
2021/10/13 10:00:11;;;;;;;3.33;3.03;;;6.40;99.90;;;;;;4892019;29;20159;-81
2021/10/13 10:02:46;;;;;;;5.07;4.60;;;6.40;99.90;;;;;;4892794;29;20411;-81
2021/10/13 10:05:36;;;;;;;4.40;3.95;;;6.50;99.90;;;;;;4958925;28;20062;-80
2021/10/13 10:08:05;;;;;;;8.38;3.72;;;6.80;99.90;;;;;;4970806;28;20050;-83
2021/10/13 10:10:35;;;;;;;13.40;5.03;;;6.80;99.90;;;;;;4970457;28;20523;-82
2021/10/13 10:13:11;;;;;;;5.00;4.18;;;6.90;99.90;;;;;;4970811;28;20047;-84
2021/10/13 10:15:41;;;;;;;12.75;4.15;;;7.10;99.90;;;;;;4937082;28;20055;-82
2021/10/13 10:18:33;;;;;;;4.38;3.72;;;7.00;99.90;;;;;;4936279;29;20778;-81
2021/10/13 10:21:27;;;;;;;4.70;3.30;;;6.90;99.90;;;;;;4935825;29;20054;-79
2021/10/13 10:23:56;;;;;;;8.13;3.97;;;7.00;99.90;;;;;;4936332;29;20052;-79
2021/10/13 10:26:24;;;;;;;4.53;2.20;;;7.10;99.90;;;;;;4936103;29;20055;-82
2021/10/13 10:28:54;;;;;;;4.78;2.30;;;7.30;99.90;;;;;;4953826;28;20043;-83
2021/10/13 10:31:28;;;;;;;3.50;2.92;;;7.50;99.90;;;;;;4955426;29;20401;-82
2021/10/13 10:34:21;;;;;;;2.22;2.13;;;7.40;99.90;;;;;;4954698;28;20058;-82
2021/10/13 10:36:49;;;;;;;1.85;1.70;;;7.40;99.90;;;;;;4952555;28;20051;-82
2021/10/13 10:39:21;;;;;;;2.72;2.15;;;7.40;99.90;;;;;;4955192;29;20401;-81
2021/10/13 10:41:57;;;;;;;2.53;2.25;;;7.30;99.90;;;;;;4954217;28;20035;-81
2021/10/13 10:44:44;;;;;;;2.17;2.03;;;7.50;99.90;;;;;;4955062;29;20047;-81
2021/10/13 10:47:14;;;;;;;5.43;2.17;;;7.40;99.90;;;;;;4933494;29;20055;-81
2021/10/13 10:50:03;;;;;;;2.27;2.03;;;7.40;99.90;;;;;;4935508;29;20048;-82
2021/10/13 10:52:30;;;;;;;3.10;1.85;;;7.30;99.90;;;;;;4935436;29;20315;-81
2021/10/13 10:55:09;;;;;;;2.97;2.38;;;7.40;99.90;;;;;;4934809;29;20043;-82
2021/10/13 10:57:36;;;;;;;5.80;2.92;;;7.30;99.90;;;;;;4934969;29;20051;-82
2021/10/13 11:00:10;;;;;;;4.05;2.70;;;7.50;99.90;;;;;;4935063;29;20066;-83
2021/10/13 11:02:38;;;;;;;2.58;2.28;;;7.50;99.90;;;;;;4935912;29;20505;-83
2021/10/13 11:05:11;;;;;;;2.10;1.90;;;7.40;99.90;;;;;;4961274;28;20054;-82
2021/10/13 11:07:42;;;;;;;4.47;2.50;;;7.40;99.90;;;;;;4974115;28;20396;-84
2021/10/13 11:10:12;;;;;;;2.50;2.30;;;7.30;99.90;;;;;;4973949;28;20043;-82
2021/10/13 11:12:47;;;;;;;2.08;1.88;;;7.50;99.90;;;;;;4972564;28;20051;-82
2021/10/13 11:15:16;;;;;;;2.80;2.58;;;7.50;99.90;;;;;;4974236;28;20388;-82
2021/10/13 11:17:44;;;;;;;2.83;2.63;;;7.50;99.90;;;;;;4975731;28;20054;-83
2021/10/13 11:20:15;;;;;;;2.83;2.53;;;7.50;99.90;;;;;;4956296;28;20365;-82
2021/10/13 11:22:43;;;;;;;2.65;2.45;;;7.50;99.90;;;;;;4973379;28;20058;-82
2021/10/13 11:25:17;;;;;;;4.07;3.67;;;7.60;99.90;;;;;;4963960;28;20050;-82
2021/10/13 11:28:11;;;;;;;5.18;3.35;;;7.60;99.90;;;;;;4952856;29;20047;-81
2021/10/13 11:30:48;;;;;;;3.58;2.40;;;7.60;99.90;;;;;;4952827;28;20492;-83
2021/10/13 11:33:21;;;;;;;4.97;2.95;;;7.60;99.90;;;;;;4954477;28;20401;-85
2021/10/13 11:35:49;;;;;;;5.05;3.38;;;7.70;99.90;;;;;;4954970;29;20044;-82
2021/10/13 11:38:20;;;;;;;5.35;3.20;;;7.70;99.90;;;;;;4954162;28;20046;-84
2021/10/13 11:40:49;;;;;;;3.67;3.35;;;7.70;99.90;;;;;;4960504;28;20050;-83
2021/10/13 11:43:22;;;;;;;2.40;2.20;;;7.80;99.90;;;;;;4973303;28;20038;-84
2021/10/13 11:45:53;;;;;;;8.30;2.72;;;7.90;99.90;;;;;;4973748;28;20057;-81
2021/10/13 11:48:23;;;;;;;3.08;2.78;;;7.80;99.90;;;;;;4956735;28;20054;-84
2021/10/13 11:50:52;;;;;;;3.45;2.35;;;7.80;99.90;;;;;;4973436;28;20572;-81
2021/10/13 11:53:21;;;;;;;1.88;1.77;;;7.90;99.90;;;;;;4973152;28;20053;-82
2021/10/13 11:55:49;;;;;;;2.67;2.47;;;8.10;99.90;;;;;;4974351;28;20047;-82
2021/10/13 11:58:31;;;;;;;2.40;2.20;;;8.20;99.90;;;;;;4972474;28;20058;-82
2021/10/13 12:00:59;;;;;;;5.32;4.93;;;8.20;99.90;;;;;;4956070;28;20053;-81
2021/10/13 12:03:29;;;;;;;2.83;2.28;;;8.30;99.90;;;;;;4956422;28;20042;-82
2021/10/13 12:05:58;;;;;;;5.55;4.00;;;8.50;99.90;;;;;;4954267;29;20062;-83
2021/10/13 12:08:33;;;;;;;4.50;3.97;;;8.10;99.90;;;;;;4954585;29;20047;-82
2021/10/13 12:11:26;;;;;;;3.15;2.95;;;7.90;99.90;;;;;;4936431;29;20798;-83
2021/10/13 12:13:54;;;;;;;4.35;3.05;;;7.90;99.90;;;;;;4952809;29;20044;-84
2021/10/13 12:16:41;;;;;;;2.63;2.20;;;7.80;99.90;;;;;;4953311;28;20054;-81
2021/10/13 12:19:14;;;;;;;4.15;3.03;;;7.70;99.90;;;;;;4953707;29;20461;-83
2021/10/13 12:22:02;;;;;;;2.65;2.45;;;7.90;99.90;;;;;;4952429;28;20051;-81
2021/10/13 12:24:33;;;;;;;4.22;3.17;;;8.30;99.90;;;;;;4953730;29;20051;-81
2021/10/13 12:27:00;;;;;;;4.50;4.03;;;8.30;99.90;;;;;;4939085;28;20043;-83
2021/10/13 12:29:45;;;;;;;6.13;3.88;;;8.40;99.90;;;;;;4938592;28;20050;-81
2021/10/13 12:32:21;;;;;;;8.77;2.80;;;8.50;99.90;;;;;;4971962;28;20073;-80
2021/10/13 12:34:49;;;;;;;2.72;2.50;;;8.70;99.90;;;;;;4952255;28;20393;-79
2021/10/13 12:37:17;;;;;;;2.47;2.28;;;8.70;99.90;;;;;;4916400;29;20401;-82
2021/10/13 12:39:45;;;;;;;5.97;2.33;;;8.70;99.90;;;;;;4959321;28;20051;-81
2021/10/13 12:42:14;;;;;;;7.55;1.55;;;8.60;99.90;;;;;;4935443;29;20048;-81
2021/10/13 12:44:42;;;;;;;4.00;2.08;;;8.30;99.90;;;;;;4958855;28;20051;-79
2021/10/13 12:47:15;;;;;;;2.72;1.45;;;8.20;99.90;;;;;;4950016;28;20466;-82
2021/10/13 12:49:47;;;;;;;2.60;2.40;;;8.00;99.90;;;;;;4916688;29;20414;-83
2021/10/13 12:52:26;;;;;;;4.13;3.00;;;7.70;99.90;;;;;;4932304;29;20481;-86
2021/10/13 12:54:57;;;;;;;6.18;3.35;;;7.60;99.90;;;;;;4933846;29;20062;-86
2021/10/13 12:57:29;;;;;;;9.45;2.78;;;7.50;99.90;;;;;;4952003;28;20051;-84
2021/10/13 13:00:03;;;;;;;4.18;2.83;;;7.50;99.90;;;;;;4951344;29;20043;-86
2021/10/13 13:03:01;;;;;;;2.97;2.38;;;7.30;99.90;;;;;;4951307;29;20712;-88
2021/10/13 13:05:33;;;;;;;2.90;2.50;;;6.90;99.90;;;;;;4968457;28;20054;-83
2021/10/13 13:08:01;;;;;;;2.80;2.60;;;6.80;99.90;;;;;;4970209;28;20078;-84
2021/10/13 13:10:28;;;;;;;2.42;2.22;;;6.80;99.90;;;;;;4952726;28;20058;-84
2021/10/13 13:12:56;;;;;;;4.35;3.25;;;6.80;99.90;;;;;;4952042;28;20060;-84
2021/10/13 13:15:24;;;;;;;5.47;3.03;;;6.80;99.90;;;;;;4951496;28;20039;-84
2021/10/13 13:17:52;;;;;;;2.47;2.25;;;6.80;99.90;;;;;;4952173;28;20043;-84
2021/10/13 13:20:20;;;;;;;4.10;3.28;;;6.90;99.90;;;;;;4952380;28;20039;-83
2021/10/13 13:22:47;;;;;;;3.97;3.22;;;7.10;99.90;;;;;;4952310;28;20394;-84